sensor_id;sensor_type;location;lat;lon;timestamp;P1;durP1;ratioP1;P2;durP2;ratioP2
5333;SDS011;2689;50.954;7.116;2024-01-11T00:00:08;28.83;;;17.35;;
5333;SDS011;2689;50.954;7.116;2024-01-11T00:02:35;35.10;;;18.52;;
5333;SDS011;2689;50.954;7.116;2024-01-11T00:05:03;35.13;;;17.17;;
5333;SDS011;2689;50.954;7.116;2024-01-11T00:07:31;29.70;;;17.35;;
5333;SDS011;2689;50.954;7.116;2024-01-11T00:09:58;26.80;;;16.38;;
5333;SDS011;2689;50.954;7.116;2024-01-11T00:12:26;30.48;;;17.02;;
5333;SDS011;2689;50.954;7.116;2024-01-11T00:14:53;31.23;;;16.65;;
5333;SDS011;2689;50.954;7.116;2024-01-11T00:17:19;31.65;;;17.15;;
5333;SDS011;2689;50.954;7.116;2024-01-11T00:19:46;31.80;;;16.40;;
5333;SDS011;2689;50.954;7.116;2024-01-11T00:22:15;28.65;;;15.60;;
5333;SDS011;2689;50.954;7.116;2024-01-11T00:24:41;31.17;;;16.98;;
5333;SDS011;2689;50.954;7.116;2024-01-11T00:27:08;33.20;;;17.38;;
5333;SDS011;2689;50.954;7.116;2024-01-11T00:29:37;30.50;;;16.35;;
5333;SDS011;2689;50.954;7.116;2024-01-11T00:32:04;35.05;;;16.88;;
5333;SDS011;2689;50.954;7.116;2024-01-11T00:34:31;30.20;;;16.67;;
5333;SDS011;2689;50.954;7.116;2024-01-11T00:36:57;31.05;;;16.90;;
5333;SDS011;2689;50.954;7.116;2024-01-11T00:39:25;31.88;;;16.13;;
5333;SDS011;2689;50.954;7.116;2024-01-11T00:41:52;37.45;;;18.30;;
5333;SDS011;2689;50.954;7.116;2024-01-11T00:44:18;27.35;;;14.70;;
5333;SDS011;2689;50.954;7.116;2024-01-11T00:46:45;30.27;;;16.77;;
5333;SDS011;2689;50.954;7.116;2024-01-11T00:49:12;24.10;;;14.63;;
5333;SDS011;2689;50.954;7.116;2024-01-11T00:51:38;23.88;;;13.80;;
5333;SDS011;2689;50.954;7.116;2024-01-11T00:54:05;22.55;;;13.60;;
5333;SDS011;2689;50.954;7.116;2024-01-11T00:56:33;22.58;;;13.57;;
5333;SDS011;2689;50.954;7.116;2024-01-11T00:59:00;22.55;;;13.07;;
5333;SDS011;2689;50.954;7.116;2024-01-11T01:01:27;26.45;;;14.35;;
5333;SDS011;2689;50.954;7.116;2024-01-11T01:03:53;27.45;;;14.43;;
5333;SDS011;2689;50.954;7.116;2024-01-11T01:06:20;22.42;;;13.35;;
5333;SDS011;2689;50.954;7.116;2024-01-11T01:08:47;27.17;;;14.27;;
5333;SDS011;2689;50.954;7.116;2024-01-11T01:11:13;25.50;;;13.80;;
5333;SDS011;2689;50.954;7.116;2024-01-11T01:13:41;25.33;;;13.50;;
5333;SDS011;2689;50.954;7.116;2024-01-11T01:16:08;26.23;;;14.18;;
5333;SDS011;2689;50.954;7.116;2024-01-11T01:18:34;23.50;;;13.45;;
5333;SDS011;2689;50.954;7.116;2024-01-11T01:21:01;23.27;;;11.30;;
5333;SDS011;2689;50.954;7.116;2024-01-11T01:23:28;24.92;;;12.98;;
5333;SDS011;2689;50.954;7.116;2024-01-11T01:25:55;26.63;;;13.40;;
5333;SDS011;2689;50.954;7.116;2024-01-11T01:28:21;25.25;;;13.48;;
5333;SDS011;2689;50.954;7.116;2024-01-11T01:30:57;24.05;;;13.80;;
5333;SDS011;2689;50.954;7.116;2024-01-11T01:33:23;21.40;;;12.85;;
5333;SDS011;2689;50.954;7.116;2024-01-11T01:35:50;18.80;;;10.73;;
5333;SDS011;2689;50.954;7.116;2024-01-11T01:38:17;19.35;;;11.93;;
5333;SDS011;2689;50.954;7.116;2024-01-11T01:40:43;21.98;;;13.13;;
5333;SDS011;2689;50.954;7.116;2024-01-11T01:43:10;23.95;;;12.00;;
5333;SDS011;2689;50.954;7.116;2024-01-11T01:45:38;27.13;;;13.88;;
5333;SDS011;2689;50.954;7.116;2024-01-11T01:48:06;24.15;;;13.55;;
5333;SDS011;2689;50.954;7.116;2024-01-11T01:50:33;22.80;;;14.20;;
5333;SDS011;2689;50.954;7.116;2024-01-11T01:53:00;23.65;;;12.98;;
5333;SDS011;2689;50.954;7.116;2024-01-11T01:55:28;23.70;;;13.73;;
5333;SDS011;2689;50.954;7.116;2024-01-11T01:57:55;22.67;;;12.82;;
5333;SDS011;2689;50.954;7.116;2024-01-11T02:00:23;25.40;;;13.23;;
5333;SDS011;2689;50.954;7.116;2024-01-11T02:02:50;23.10;;;13.27;;
5333;SDS011;2689;50.954;7.116;2024-01-11T02:05:27;21.27;;;13.05;;
5333;SDS011;2689;50.954;7.116;2024-01-11T02:07:53;26.92;;;12.63;;
5333;SDS011;2689;50.954;7.116;2024-01-11T02:10:21;24.10;;;13.35;;
5333;SDS011;2689;50.954;7.116;2024-01-11T02:12:49;28.60;;;13.25;;
5333;SDS011;2689;50.954;7.116;2024-01-11T02:15:16;25.83;;;14.50;;
5333;SDS011;2689;50.954;7.116;2024-01-11T02:17:43;25.75;;;14.05;;
5333;SDS011;2689;50.954;7.116;2024-01-11T02:20:10;30.40;;;15.68;;
5333;SDS011;2689;50.954;7.116;2024-01-11T02:22:38;23.13;;;14.77;;
5333;SDS011;2689;50.954;7.116;2024-01-11T02:25:10;26.00;;;14.32;;
5333;SDS011;2689;50.954;7.116;2024-01-11T02:27:46;25.02;;;13.52;;
5333;SDS011;2689;50.954;7.116;2024-01-11T02:30:13;23.48;;;13.75;;
5333;SDS011;2689;50.954;7.116;2024-01-11T02:32:41;28.55;;;13.73;;
5333;SDS011;2689;50.954;7.116;2024-01-11T02:35:11;25.23;;;14.07;;
5333;SDS011;2689;50.954;7.116;2024-01-11T02:37:38;23.98;;;12.82;;
5333;SDS011;2689;50.954;7.116;2024-01-11T02:40:06;30.02;;;17.67;;
5333;SDS011;2689;50.954;7.116;2024-01-11T02:42:36;30.88;;;16.90;;
5333;SDS011;2689;50.954;7.116;2024-01-11T02:45:02;38.75;;;19.90;;
5333;SDS011;2689;50.954;7.116;2024-01-11T02:47:30;31.40;;;17.00;;
5333;SDS011;2689;50.954;7.116;2024-01-11T02:49:56;29.02;;;15.95;;
5333;SDS011;2689;50.954;7.116;2024-01-11T02:52:23;40.28;;;17.05;;
5333;SDS011;2689;50.954;7.116;2024-01-11T02:54:50;38.67;;;20.15;;
5333;SDS011;2689;50.954;7.116;2024-01-11T02:57:16;37.65;;;17.25;;
5333;SDS011;2689;50.954;7.116;2024-01-11T02:59:44;33.85;;;17.70;;
5333;SDS011;2689;50.954;7.116;2024-01-11T03:02:11;32.20;;;18.85;;
5333;SDS011;2689;50.954;7.116;2024-01-11T03:04:38;29.05;;;14.10;;
5333;SDS011;2689;50.954;7.116;2024-01-11T03:07:04;25.50;;;13.68;;
5333;SDS011;2689;50.954;7.116;2024-01-11T03:09:31;26.08;;;15.60;;
5333;SDS011;2689;50.954;7.116;2024-01-11T03:11:59;24.23;;;15.20;;
5333;SDS011;2689;50.954;7.116;2024-01-11T03:14:25;20.73;;;13.25;;
5333;SDS011;2689;50.954;7.116;2024-01-11T03:16:53;21.98;;;13.48;;
5333;SDS011;2689;50.954;7.116;2024-01-11T03:19:20;27.55;;;13.80;;
5333;SDS011;2689;50.954;7.116;2024-01-11T03:21:47;25.83;;;14.23;;
5333;SDS011;2689;50.954;7.116;2024-01-11T03:24:13;26.35;;;16.00;;
5333;SDS011;2689;50.954;7.116;2024-01-11T03:26:40;28.95;;;15.63;;
5333;SDS011;2689;50.954;7.116;2024-01-11T03:29:07;22.92;;;14.27;;
5333;SDS011;2689;50.954;7.116;2024-01-11T03:31:34;25.30;;;14.98;;
5333;SDS011;2689;50.954;7.116;2024-01-11T03:34:04;23.98;;;14.10;;
5333;SDS011;2689;50.954;7.116;2024-01-11T03:36:31;21.88;;;12.48;;
5333;SDS011;2689;50.954;7.116;2024-01-11T03:38:57;21.52;;;13.05;;
5333;SDS011;2689;50.954;7.116;2024-01-11T03:41:24;21.08;;;12.85;;
5333;SDS011;2689;50.954;7.116;2024-01-11T03:43:51;20.17;;;12.80;;
5333;SDS011;2689;50.954;7.116;2024-01-11T03:46:18;25.92;;;12.90;;
5333;SDS011;2689;50.954;7.116;2024-01-11T03:48:45;20.40;;;11.70;;
5333;SDS011;2689;50.954;7.116;2024-01-11T03:51:13;31.48;;;15.60;;
5333;SDS011;2689;50.954;7.116;2024-01-11T03:53:40;25.88;;;14.18;;
5333;SDS011;2689;50.954;7.116;2024-01-11T03:56:07;22.88;;;13.20;;
5333;SDS011;2689;50.954;7.116;2024-01-11T03:58:35;27.88;;;13.40;;
5333;SDS011;2689;50.954;7.116;2024-01-11T04:01:08;21.08;;;12.45;;
5333;SDS011;2689;50.954;7.116;2024-01-11T04:03:35;24.05;;;15.18;;
5333;SDS011;2689;50.954;7.116;2024-01-11T04:06:02;24.63;;;13.55;;
5333;SDS011;2689;50.954;7.116;2024-01-11T04:08:30;25.23;;;14.35;;
5333;SDS011;2689;50.954;7.116;2024-01-11T04:10:56;27.38;;;16.25;;
5333;SDS011;2689;50.954;7.116;2024-01-11T04:13:23;28.75;;;14.82;;
5333;SDS011;2689;50.954;7.116;2024-01-11T04:15:50;25.60;;;14.50;;
5333;SDS011;2689;50.954;7.116;2024-01-11T04:18:16;27.05;;;14.82;;
5333;SDS011;2689;50.954;7.116;2024-01-11T04:20:43;27.20;;;14.57;;
5333;SDS011;2689;50.954;7.116;2024-01-11T04:23:10;25.80;;;14.43;;
5333;SDS011;2689;50.954;7.116;2024-01-11T04:25:38;26.42;;;14.85;;
5333;SDS011;2689;50.954;7.116;2024-01-11T04:28:05;24.95;;;13.95;;
5333;SDS011;2689;50.954;7.116;2024-01-11T04:30:31;27.58;;;15.25;;
5333;SDS011;2689;50.954;7.116;2024-01-11T04:32:58;27.30;;;15.70;;
5333;SDS011;2689;50.954;7.116;2024-01-11T04:35:25;22.20;;;13.57;;
5333;SDS011;2689;50.954;7.116;2024-01-11T04:37:51;21.35;;;12.73;;
5333;SDS011;2689;50.954;7.116;2024-01-11T04:40:18;21.10;;;13.20;;
5333;SDS011;2689;50.954;7.116;2024-01-11T04:42:46;21.83;;;13.93;;
5333;SDS011;2689;50.954;7.116;2024-01-11T04:45:13;23.55;;;12.55;;
5333;SDS011;2689;50.954;7.116;2024-01-11T04:47:39;25.30;;;14.07;;
5333;SDS011;2689;50.954;7.116;2024-01-11T04:50:07;23.52;;;13.07;;
5333;SDS011;2689;50.954;7.116;2024-01-11T04:52:34;21.63;;;12.38;;
5333;SDS011;2689;50.954;7.116;2024-01-11T04:55:01;23.38;;;12.00;;
5333;SDS011;2689;50.954;7.116;2024-01-11T04:57:27;26.45;;;13.73;;
5333;SDS011;2689;50.954;7.116;2024-01-11T04:59:55;19.98;;;13.57;;
5333;SDS011;2689;50.954;7.116;2024-01-11T05:02:22;20.45;;;12.00;;
5333;SDS011;2689;50.954;7.116;2024-01-11T05:04:49;24.15;;;13.13;;
5333;SDS011;2689;50.954;7.116;2024-01-11T05:07:15;20.55;;;12.90;;
5333;SDS011;2689;50.954;7.116;2024-01-11T05:09:42;19.60;;;12.68;;
5333;SDS011;2689;50.954;7.116;2024-01-11T05:12:09;26.25;;;13.68;;
5333;SDS011;2689;50.954;7.116;2024-01-11T05:14:35;22.88;;;11.57;;
5333;SDS011;2689;50.954;7.116;2024-01-11T05:17:04;17.00;;;10.40;;
5333;SDS011;2689;50.954;7.116;2024-01-11T05:19:30;23.33;;;13.32;;
5333;SDS011;2689;50.954;7.116;2024-01-11T05:21:57;25.20;;;13.85;;
5333;SDS011;2689;50.954;7.116;2024-01-11T05:24:24;24.10;;;12.70;;
5333;SDS011;2689;50.954;7.116;2024-01-11T05:26:51;21.75;;;13.23;;
5333;SDS011;2689;50.954;7.116;2024-01-11T05:29:18;25.83;;;14.55;;
5333;SDS011;2689;50.954;7.116;2024-01-11T05:31:44;23.40;;;11.35;;
5333;SDS011;2689;50.954;7.116;2024-01-11T05:34:12;24.88;;;13.90;;
5333;SDS011;2689;50.954;7.116;2024-01-11T05:36:39;27.45;;;13.52;;
5333;SDS011;2689;50.954;7.116;2024-01-11T05:39:06;24.35;;;12.88;;
5333;SDS011;2689;50.954;7.116;2024-01-11T05:41:32;20.95;;;11.43;;
5333;SDS011;2689;50.954;7.116;2024-01-11T05:43:59;26.05;;;14.27;;
5333;SDS011;2689;50.954;7.116;2024-01-11T05:46:26;25.88;;;13.38;;
5333;SDS011;2689;50.954;7.116;2024-01-11T05:48:52;27.45;;;14.48;;
5333;SDS011;2689;50.954;7.116;2024-01-11T05:51:21;26.65;;;13.95;;
5333;SDS011;2689;50.954;7.116;2024-01-11T05:53:47;23.45;;;13.77;;
5333;SDS011;2689;50.954;7.116;2024-01-11T05:56:14;21.65;;;12.60;;
5333;SDS011;2689;50.954;7.116;2024-01-11T05:58:41;35.22;;;16.20;;
5333;SDS011;2689;50.954;7.116;2024-01-11T06:01:08;35.15;;;15.60;;
5333;SDS011;2689;50.954;7.116;2024-01-11T06:03:34;51.08;;;18.48;;
5333;SDS011;2689;50.954;7.116;2024-01-11T06:06:02;47.00;;;20.13;;
5333;SDS011;2689;50.954;7.116;2024-01-11T06:08:31;32.22;;;18.02;;
5333;SDS011;2689;50.954;7.116;2024-01-11T06:10:58;46.75;;;18.75;;
5333;SDS011;2689;50.954;7.116;2024-01-11T06:13:25;39.17;;;18.27;;
5333;SDS011;2689;50.954;7.116;2024-01-11T06:15:52;44.30;;;18.48;;
5333;SDS011;2689;50.954;7.116;2024-01-11T06:18:19;34.58;;;17.92;;
5333;SDS011;2689;50.954;7.116;2024-01-11T06:20:46;35.53;;;18.10;;
5333;SDS011;2689;50.954;7.116;2024-01-11T06:23:12;33.20;;;16.70;;
5333;SDS011;2689;50.954;7.116;2024-01-11T06:25:41;34.15;;;17.02;;
5333;SDS011;2689;50.954;7.116;2024-01-11T06:28:08;26.13;;;14.88;;
5333;SDS011;2689;50.954;7.116;2024-01-11T06:30:35;28.60;;;15.88;;
5333;SDS011;2689;50.954;7.116;2024-01-11T06:33:02;30.05;;;14.43;;
5333;SDS011;2689;50.954;7.116;2024-01-11T06:35:29;31.48;;;15.50;;
5333;SDS011;2689;50.954;7.116;2024-01-11T06:37:56;28.95;;;15.55;;
5333;SDS011;2689;50.954;7.116;2024-01-11T06:40:23;26.67;;;15.38;;
5333;SDS011;2689;50.954;7.116;2024-01-11T06:42:51;31.13;;;15.52;;
5333;SDS011;2689;50.954;7.116;2024-01-11T06:45:18;28.75;;;15.40;;
5333;SDS011;2689;50.954;7.116;2024-01-11T06:47:44;28.35;;;17.02;;
5333;SDS011;2689;50.954;7.116;2024-01-11T06:50:12;25.58;;;13.70;;
5333;SDS011;2689;50.954;7.116;2024-01-11T06:52:39;26.08;;;15.38;;
5333;SDS011;2689;50.954;7.116;2024-01-11T06:55:06;27.38;;;12.98;;
5333;SDS011;2689;50.954;7.116;2024-01-11T06:57:33;28.15;;;15.00;;
5333;SDS011;2689;50.954;7.116;2024-01-11T07:00:02;25.38;;;14.95;;
5333;SDS011;2689;50.954;7.116;2024-01-11T07:02:30;22.98;;;12.95;;
5333;SDS011;2689;50.954;7.116;2024-01-11T07:04:56;26.75;;;15.18;;
5333;SDS011;2689;50.954;7.116;2024-01-11T07:07:23;25.58;;;13.07;;
5333;SDS011;2689;50.954;7.116;2024-01-11T07:09:51;22.42;;;13.57;;
5333;SDS011;2689;50.954;7.116;2024-01-11T07:12:20;25.63;;;14.82;;
5333;SDS011;2689;50.954;7.116;2024-01-11T07:14:47;32.55;;;14.52;;
5333;SDS011;2689;50.954;7.116;2024-01-11T07:17:15;22.90;;;12.82;;
5333;SDS011;2689;50.954;7.116;2024-01-11T07:19:42;33.10;;;15.55;;
5333;SDS011;2689;50.954;7.116;2024-01-11T07:22:08;24.25;;;14.43;;
5333;SDS011;2689;50.954;7.116;2024-01-11T07:24:35;27.00;;;14.48;;
5333;SDS011;2689;50.954;7.116;2024-01-11T07:27:03;30.70;;;12.82;;
5333;SDS011;2689;50.954;7.116;2024-01-11T07:29:30;25.77;;;15.02;;
5333;SDS011;2689;50.954;7.116;2024-01-11T07:31:57;26.45;;;14.80;;
5333;SDS011;2689;50.954;7.116;2024-01-11T07:34:25;26.38;;;15.40;;
5333;SDS011;2689;50.954;7.116;2024-01-11T07:36:52;32.28;;;16.70;;
5333;SDS011;2689;50.954;7.116;2024-01-11T07:39:19;29.80;;;16.30;;
5333;SDS011;2689;50.954;7.116;2024-01-11T07:41:47;33.63;;;17.17;;
5333;SDS011;2689;50.954;7.116;2024-01-11T07:44:14;30.08;;;17.40;;
5333;SDS011;2689;50.954;7.116;2024-01-11T07:46:41;30.40;;;15.75;;
5333;SDS011;2689;50.954;7.116;2024-01-11T07:49:08;28.20;;;15.77;;
5333;SDS011;2689;50.954;7.116;2024-01-11T07:51:36;23.17;;;15.05;;
5333;SDS011;2689;50.954;7.116;2024-01-11T07:54:04;25.70;;;14.60;;
5333;SDS011;2689;50.954;7.116;2024-01-11T07:56:31;30.85;;;17.50;;
5333;SDS011;2689;50.954;7.116;2024-01-11T07:58:57;25.88;;;16.98;;
5333;SDS011;2689;50.954;7.116;2024-01-11T08:01:24;27.77;;;16.27;;
5333;SDS011;2689;50.954;7.116;2024-01-11T08:03:51;29.27;;;16.33;;
5333;SDS011;2689;50.954;7.116;2024-01-11T08:06:18;28.35;;;16.00;;
5333;SDS011;2689;50.954;7.116;2024-01-11T08:08:46;27.50;;;16.55;;
5333;SDS011;2689;50.954;7.116;2024-01-11T08:11:16;32.28;;;18.48;;
5333;SDS011;2689;50.954;7.116;2024-01-11T08:13:43;31.83;;;16.10;;
5333;SDS011;2689;50.954;7.116;2024-01-11T08:16:14;28.60;;;16.90;;
5333;SDS011;2689;50.954;7.116;2024-01-11T08:18:41;29.73;;;15.95;;
5333;SDS011;2689;50.954;7.116;2024-01-11T08:21:08;27.95;;;15.68;;
5333;SDS011;2689;50.954;7.116;2024-01-11T08:23:36;29.77;;;17.63;;
5333;SDS011;2689;50.954;7.116;2024-01-11T08:26:05;30.33;;;16.30;;
5333;SDS011;2689;50.954;7.116;2024-01-11T08:28:32;29.00;;;16.73;;
5333;SDS011;2689;50.954;7.116;2024-01-11T08:30:59;30.00;;;16.80;;
5333;SDS011;2689;50.954;7.116;2024-01-11T08:33:25;26.33;;;15.43;;
5333;SDS011;2689;50.954;7.116;2024-01-11T08:35:52;30.65;;;16.80;;
5333;SDS011;2689;50.954;7.116;2024-01-11T08:38:19;25.50;;;15.00;;
5333;SDS011;2689;50.954;7.116;2024-01-11T08:40:45;30.83;;;16.33;;
5333;SDS011;2689;50.954;7.116;2024-01-11T08:43:14;28.75;;;15.77;;
5333;SDS011;2689;50.954;7.116;2024-01-11T08:45:41;28.50;;;17.00;;
5333;SDS011;2689;50.954;7.116;2024-01-11T08:48:08;30.88;;;17.52;;
5333;SDS011;2689;50.954;7.116;2024-01-11T08:50:36;29.80;;;14.93;;
5333;SDS011;2689;50.954;7.116;2024-01-11T08:53:03;37.70;;;16.58;;
5333;SDS011;2689;50.954;7.116;2024-01-11T08:55:29;32.45;;;17.60;;
5333;SDS011;2689;50.954;7.116;2024-01-11T08:57:56;42.70;;;17.63;;
5333;SDS011;2689;50.954;7.116;2024-01-11T09:00:24;38.58;;;19.08;;
5333;SDS011;2689;50.954;7.116;2024-01-11T09:02:52;36.08;;;19.23;;
5333;SDS011;2689;50.954;7.116;2024-01-11T09:05:19;28.00;;;16.70;;
5333;SDS011;2689;50.954;7.116;2024-01-11T09:07:46;30.27;;;16.30;;
5333;SDS011;2689;50.954;7.116;2024-01-11T09:10:13;31.13;;;17.10;;
5333;SDS011;2689;50.954;7.116;2024-01-11T09:12:40;27.37;;;17.33;;
5333;SDS011;2689;50.954;7.116;2024-01-11T09:15:06;26.93;;;16.83;;
5333;SDS011;2689;50.954;7.116;2024-01-11T09:17:36;29.47;;;18.27;;
5333;SDS011;2689;50.954;7.116;2024-01-11T09:20:04;29.37;;;19.00;;
5333;SDS011;2689;50.954;7.116;2024-01-11T09:22:32;36.17;;;19.37;;
5333;SDS011;2689;50.954;7.116;2024-01-11T09:24:58;32.50;;;20.60;;
5333;SDS011;2689;50.954;7.116;2024-01-11T09:27:25;29.03;;;18.60;;
5333;SDS011;2689;50.954;7.116;2024-01-11T09:29:52;33.00;;;18.70;;
5333;SDS011;2689;50.954;7.116;2024-01-11T09:32:18;27.00;;;18.50;;
5333;SDS011;2689;50.954;7.116;2024-01-11T09:34:46;28.37;;;18.90;;
5333;SDS011;2689;50.954;7.116;2024-01-11T09:37:14;27.23;;;17.17;;
5333;SDS011;2689;50.954;7.116;2024-01-11T09:39:41;31.97;;;19.43;;
5333;SDS011;2689;50.954;7.116;2024-01-11T09:42:08;27.80;;;18.93;;
5333;SDS011;2689;50.954;7.116;2024-01-11T09:44:35;33.23;;;20.43;;
5333;SDS011;2689;50.954;7.116;2024-01-11T09:47:03;32.83;;;19.03;;
5333;SDS011;2689;50.954;7.116;2024-01-11T09:49:31;28.40;;;18.57;;
5333;SDS011;2689;50.954;7.116;2024-01-11T09:52:02;30.77;;;18.83;;
5333;SDS011;2689;50.954;7.116;2024-01-11T09:54:30;36.73;;;21.30;;
5333;SDS011;2689;50.954;7.116;2024-01-11T09:56:57;35.50;;;19.70;;
5333;SDS011;2689;50.954;7.116;2024-01-11T09:59:26;36.27;;;19.30;;
5333;SDS011;2689;50.954;7.116;2024-01-11T10:01:53;34.43;;;20.17;;
5333;SDS011;2689;50.954;7.116;2024-01-11T10:04:19;35.17;;;18.90;;
5333;SDS011;2689;50.954;7.116;2024-01-11T10:06:46;31.57;;;18.93;;
5333;SDS011;2689;50.954;7.116;2024-01-11T10:09:17;31.40;;;18.50;;
5333;SDS011;2689;50.954;7.116;2024-01-11T10:11:45;32.87;;;19.67;;
5333;SDS011;2689;50.954;7.116;2024-01-11T10:14:12;32.87;;;19.30;;
5333;SDS011;2689;50.954;7.116;2024-01-11T10:16:39;32.90;;;18.73;;
5333;SDS011;2689;50.954;7.116;2024-01-11T10:19:08;28.70;;;17.63;;
5333;SDS011;2689;50.954;7.116;2024-01-11T10:21:37;48.97;;;20.10;;
5333;SDS011;2689;50.954;7.116;2024-01-11T10:24:04;46.67;;;20.30;;
5333;SDS011;2689;50.954;7.116;2024-01-11T10:26:33;35.50;;;18.70;;
5333;SDS011;2689;50.954;7.116;2024-01-11T10:29:00;36.60;;;20.27;;
5333;SDS011;2689;50.954;7.116;2024-01-11T10:31:28;30.50;;;19.45;;
5333;SDS011;2689;50.954;7.116;2024-01-11T10:33:55;37.80;;;18.40;;
5333;SDS011;2689;50.954;7.116;2024-01-11T10:36:22;39.25;;;21.20;;
5333;SDS011;2689;50.954;7.116;2024-01-11T10:38:49;39.35;;;19.85;;
5333;SDS011;2689;50.954;7.116;2024-01-11T10:41:17;38.00;;;21.05;;
5333;SDS011;2689;50.954;7.116;2024-01-11T10:43:47;36.92;;;20.60;;
5333;SDS011;2689;50.954;7.116;2024-01-11T10:46:14;34.35;;;20.23;;
5333;SDS011;2689;50.954;7.116;2024-01-11T10:48:47;31.60;;;19.33;;
5333;SDS011;2689;50.954;7.116;2024-01-11T10:51:18;34.80;;;22.00;;
5333;SDS011;2689;50.954;7.116;2024-01-11T10:53:48;34.45;;;20.50;;
5333;SDS011;2689;50.954;7.116;2024-01-11T10:56:18;37.07;;;21.93;;
5333;SDS011;2689;50.954;7.116;2024-01-11T10:58:48;32.92;;;19.45;;
5333;SDS011;2689;50.954;7.116;2024-01-11T11:01:16;40.80;;;19.70;;
5333;SDS011;2689;50.954;7.116;2024-01-11T11:03:43;33.60;;;20.73;;
5333;SDS011;2689;50.954;7.116;2024-01-11T11:06:12;36.33;;;20.73;;
5333;SDS011;2689;50.954;7.116;2024-01-11T11:08:39;33.08;;;20.38;;
5333;SDS011;2689;50.954;7.116;2024-01-11T11:11:07;35.90;;;21.63;;
5333;SDS011;2689;50.954;7.116;2024-01-11T11:13:34;32.92;;;20.73;;
5333;SDS011;2689;50.954;7.116;2024-01-11T11:16:03;37.70;;;22.47;;
5333;SDS011;2689;50.954;7.116;2024-01-11T11:18:31;37.27;;;21.20;;
5333;SDS011;2689;50.954;7.116;2024-01-11T11:21:00;39.37;;;21.30;;
5333;SDS011;2689;50.954;7.116;2024-01-11T11:23:27;35.83;;;21.80;;
5333;SDS011;2689;50.954;7.116;2024-01-11T11:25:54;34.87;;;20.80;;
5333;SDS011;2689;50.954;7.116;2024-01-11T11:28:22;35.67;;;22.97;;
5333;SDS011;2689;50.954;7.116;2024-01-11T11:30:49;38.77;;;23.90;;
5333;SDS011;2689;50.954;7.116;2024-01-11T11:33:20;38.37;;;21.97;;
5333;SDS011;2689;50.954;7.116;2024-01-11T11:35:49;37.37;;;21.17;;
5333;SDS011;2689;50.954;7.116;2024-01-11T11:38:19;43.37;;;23.80;;
5333;SDS011;2689;50.954;7.116;2024-01-11T11:40:47;41.17;;;23.13;;
5333;SDS011;2689;50.954;7.116;2024-01-11T11:43:15;33.47;;;21.90;;
5333;SDS011;2689;50.954;7.116;2024-01-11T11:45:43;39.67;;;22.70;;
5333;SDS011;2689;50.954;7.116;2024-01-11T11:51:14;48.80;;;23.30;;
5333;SDS011;2689;50.954;7.116;2024-01-11T11:53:41;40.37;;;23.00;;
5333;SDS011;2689;50.954;7.116;2024-01-11T11:56:09;33.17;;;22.73;;
5333;SDS011;2689;50.954;7.116;2024-01-11T11:58:37;36.33;;;21.80;;
5333;SDS011;2689;50.954;7.116;2024-01-11T12:01:05;39.67;;;23.33;;
5333;SDS011;2689;50.954;7.116;2024-01-11T12:03:32;43.27;;;23.30;;
5333;SDS011;2689;50.954;7.116;2024-01-11T12:06:01;40.30;;;23.27;;
5333;SDS011;2689;50.954;7.116;2024-01-11T12:08:29;39.20;;;20.93;;
5333;SDS011;2689;50.954;7.116;2024-01-11T12:10:57;35.03;;;21.83;;
5333;SDS011;2689;50.954;7.116;2024-01-11T12:13:24;40.63;;;23.20;;
5333;SDS011;2689;50.954;7.116;2024-01-11T12:15:51;37.03;;;23.83;;
5333;SDS011;2689;50.954;7.116;2024-01-11T12:18:18;40.00;;;23.80;;
5333;SDS011;2689;50.954;7.116;2024-01-11T12:20:45;41.17;;;23.17;;
5333;SDS011;2689;50.954;7.116;2024-01-11T12:23:12;46.00;;;22.70;;
5333;SDS011;2689;50.954;7.116;2024-01-11T12:25:41;35.23;;;24.87;;
5333;SDS011;2689;50.954;7.116;2024-01-11T12:28:08;37.20;;;21.70;;
5333;SDS011;2689;50.954;7.116;2024-01-11T12:30:35;37.37;;;22.37;;
5333;SDS011;2689;50.954;7.116;2024-01-11T12:33:02;38.30;;;22.57;;
5333;SDS011;2689;50.954;7.116;2024-01-11T12:35:29;39.97;;;25.53;;
5333;SDS011;2689;50.954;7.116;2024-01-11T12:37:58;38.60;;;24.40;;
5333;SDS011;2689;50.954;7.116;2024-01-11T12:40:26;45.93;;;24.40;;
5333;SDS011;2689;50.954;7.116;2024-01-11T12:42:55;44.57;;;24.30;;
5333;SDS011;2689;50.954;7.116;2024-01-11T12:45:23;38.80;;;24.47;;
5333;SDS011;2689;50.954;7.116;2024-01-11T12:47:51;39.70;;;24.33;;
5333;SDS011;2689;50.954;7.116;2024-01-11T12:50:18;35.70;;;20.77;;
5333;SDS011;2689;50.954;7.116;2024-01-11T12:52:45;41.20;;;25.37;;
5333;SDS011;2689;50.954;7.116;2024-01-11T12:55:17;39.37;;;24.77;;
5333;SDS011;2689;50.954;7.116;2024-01-11T12:57:44;39.37;;;23.60;;
5333;SDS011;2689;50.954;7.116;2024-01-11T13:00:13;43.40;;;26.20;;
5333;SDS011;2689;50.954;7.116;2024-01-11T13:02:41;47.67;;;25.50;;
5333;SDS011;2689;50.954;7.116;2024-01-11T13:05:09;50.57;;;27.13;;
5333;SDS011;2689;50.954;7.116;2024-01-11T13:07:36;40.63;;;25.20;;
5333;SDS011;2689;50.954;7.116;2024-01-11T13:10:03;47.80;;;26.37;;
5333;SDS011;2689;50.954;7.116;2024-01-11T13:12:31;40.63;;;25.33;;
5333;SDS011;2689;50.954;7.116;2024-01-11T13:14:58;42.23;;;27.50;;
5333;SDS011;2689;50.954;7.116;2024-01-11T13:17:26;45.13;;;22.87;;
5333;SDS011;2689;50.954;7.116;2024-01-11T13:19:53;41.97;;;27.03;;
5333;SDS011;2689;50.954;7.116;2024-01-11T13:22:21;47.00;;;24.60;;
5333;SDS011;2689;50.954;7.116;2024-01-11T13:24:48;45.87;;;26.33;;
5333;SDS011;2689;50.954;7.116;2024-01-11T13:27:15;49.33;;;27.90;;
5333;SDS011;2689;50.954;7.116;2024-01-11T13:29:42;37.13;;;22.13;;
5333;SDS011;2689;50.954;7.116;2024-01-11T13:32:08;31.83;;;20.47;;
5333;SDS011;2689;50.954;7.116;2024-01-11T13:34:37;39.23;;;23.30;;
5333;SDS011;2689;50.954;7.116;2024-01-11T13:37:04;39.33;;;24.80;;
5333;SDS011;2689;50.954;7.116;2024-01-11T13:39:30;43.13;;;26.50;;
5333;SDS011;2689;50.954;7.116;2024-01-11T13:41:57;45.53;;;27.33;;
5333;SDS011;2689;50.954;7.116;2024-01-11T13:44:24;37.57;;;21.77;;
5333;SDS011;2689;50.954;7.116;2024-01-11T13:46:51;49.63;;;26.40;;
5333;SDS011;2689;50.954;7.116;2024-01-11T13:49:19;43.20;;;25.20;;
5333;SDS011;2689;50.954;7.116;2024-01-11T13:51:51;41.47;;;23.80;;
5333;SDS011;2689;50.954;7.116;2024-01-11T13:54:18;39.57;;;23.63;;
5333;SDS011;2689;50.954;7.116;2024-01-11T13:56:45;43.03;;;28.00;;
5333;SDS011;2689;50.954;7.116;2024-01-11T13:59:11;46.60;;;27.50;;
5333;SDS011;2689;50.954;7.116;2024-01-11T14:01:38;43.70;;;24.07;;
5333;SDS011;2689;50.954;7.116;2024-01-11T14:04:05;42.00;;;21.87;;
5333;SDS011;2689;50.954;7.116;2024-01-11T14:06:32;39.70;;;23.20;;
5333;SDS011;2689;50.954;7.116;2024-01-11T14:09:00;38.30;;;22.83;;
5333;SDS011;2689;50.954;7.116;2024-01-11T14:11:28;40.30;;;24.43;;
5333;SDS011;2689;50.954;7.116;2024-01-11T14:13:54;42.00;;;24.40;;
5333;SDS011;2689;50.954;7.116;2024-01-11T14:16:21;39.77;;;24.37;;
5333;SDS011;2689;50.954;7.116;2024-01-11T14:18:48;41.07;;;23.70;;
5333;SDS011;2689;50.954;7.116;2024-01-11T14:21:15;33.27;;;23.57;;
5333;SDS011;2689;50.954;7.116;2024-01-11T14:23:41;39.40;;;24.13;;
5333;SDS011;2689;50.954;7.116;2024-01-11T14:26:09;42.90;;;26.53;;
5333;SDS011;2689;50.954;7.116;2024-01-11T14:28:36;40.27;;;23.97;;
5333;SDS011;2689;50.954;7.116;2024-01-11T14:31:07;46.13;;;25.13;;
5333;SDS011;2689;50.954;7.116;2024-01-11T14:33:35;43.50;;;27.20;;
5333;SDS011;2689;50.954;7.116;2024-01-11T14:36:02;41.10;;;25.80;;
5333;SDS011;2689;50.954;7.116;2024-01-11T14:38:29;41.97;;;26.50;;
5333;SDS011;2689;50.954;7.116;2024-01-11T14:40:56;39.97;;;26.50;;
5333;SDS011;2689;50.954;7.116;2024-01-11T14:43:24;44.63;;;27.57;;
5333;SDS011;2689;50.954;7.116;2024-01-11T14:45:51;61.70;;;27.60;;
5333;SDS011;2689;50.954;7.116;2024-01-11T14:48:19;43.03;;;26.90;;
5333;SDS011;2689;50.954;7.116;2024-01-11T14:50:46;41.90;;;24.43;;